createdAt,value
2019-05-07T00:03:12.406Z,10.84
2019-05-07T00:08:19.036Z,8.92
2019-05-07T00:13:25.337Z,9.29
2019-05-07T00:18:32.322Z,8.38
2019-05-07T00:23:39.202Z,10.56
2019-05-07T00:28:45.440Z,9.14
2019-05-07T00:33:52.622Z,10.57
2019-05-07T00:38:59.300Z,9.94
2019-05-07T00:44:05.796Z,9.85
2019-05-07T00:49:12.681Z,8.89
2019-05-07T00:54:19.109Z,8.89
2019-05-07T00:59:25.348Z,10.01
2019-05-07T01:04:33.141Z,8.89
2019-05-07T01:09:39.684Z,7.59
2019-05-07T01:14:45.925Z,11.65
2019-05-07T01:19:53.318Z,8.87
2019-05-07T01:25:02.138Z,9.63
2019-05-07T01:30:08.790Z,11.31
2019-05-07T01:35:15.000Z,10.64
2019-05-07T01:40:22.794Z,12.42
2019-05-07T01:45:43.295Z,9.94
2019-05-07T01:50:35.405Z,9.57
2019-05-07T01:55:42.778Z,9.43
2019-05-07T02:00:49.307Z,9.35
2019-05-07T02:05:55.489Z,8.31
2019-05-07T02:11:02.202Z,8.71
2019-05-07T02:16:08.563Z,9.31
2019-05-07T02:21:14.772Z,8.86
2019-05-07T02:26:22.604Z,9.81
2019-05-07T02:31:29.405Z,8.92
2019-05-07T02:36:35.508Z,11.41
2019-05-07T02:41:44.147Z,8.46
2019-05-07T02:46:52.775Z,9.39
2019-05-07T02:51:59.573Z,10.13
2019-05-07T02:57:05.661Z,9.69
2019-05-07T03:02:13.957Z,11.89
2019-05-07T03:07:20.302Z,10.00
2019-05-07T03:12:26.704Z,9.64
2019-05-07T03:17:33.482Z,10.38
2019-05-07T03:22:42.638Z,11.19
2019-05-07T03:27:49.113Z,11.13
2019-05-07T03:32:56.455Z,10.24
2019-05-07T03:38:03.679Z,11.49
2019-05-07T03:43:13.963Z,11.66
2019-05-07T03:48:23.865Z,11.39
2019-05-07T03:53:23.033Z,11.30
2019-05-07T03:58:29.744Z,10.93
2019-05-07T04:03:35.948Z,11.97
2019-05-07T04:08:43.355Z,8.99
2019-05-07T04:13:53.254Z,8.85
2019-05-07T04:18:53.071Z,11.88
2019-05-07T04:24:03.511Z,13.62
2019-05-07T04:29:00.087Z,11.05
2019-05-07T04:34:06.650Z,10.28
2019-05-07T04:39:13.553Z,11.18
2019-05-07T04:44:23.258Z,13.41
2019-05-07T04:49:23.829Z,12.06
2019-05-07T04:54:23.464Z,11.51
2019-05-07T04:59:32.783Z,10.94
2019-05-07T05:04:40.076Z,10.94
2019-05-07T05:09:46.569Z,11.33
2019-05-07T05:14:52.977Z,11.89
2019-05-07T05:20:02.974Z,10.51
2019-05-07T05:25:02.446Z,12.33
2019-05-07T05:30:12.490Z,10.11
2019-05-07T05:35:09.076Z,11.99
2019-05-07T05:40:15.512Z,11.34
2019-05-07T05:45:21.838Z,10.17
2019-05-07T05:50:30.086Z,11.93
2019-05-07T05:55:36.564Z,13.13
2019-05-07T06:00:42.952Z,11.29
2019-05-07T06:05:49.320Z,14.26
2019-05-07T06:10:55.908Z,10.76
2019-05-07T06:16:03.096Z,9.85
2019-05-07T06:21:09.628Z,10.77
2019-05-07T06:26:15.848Z,11.40
2019-05-07T06:31:22.272Z,9.03
2019-05-07T06:36:28.828Z,9.99
2019-05-07T06:41:36.801Z,12.25
2019-05-07T06:46:43.500Z,8.97
2019-05-07T06:51:49.911Z,8.01
2019-05-07T06:56:56.296Z,8.82
2019-05-07T07:02:05.406Z,8.14
2019-05-07T07:07:26.086Z,7.36
2019-05-07T07:12:19.280Z,6.40
2019-05-07T07:17:25.822Z,8.70
2019-05-07T07:22:32.178Z,6.92
2019-05-07T07:27:38.504Z,8.03
2019-05-07T07:32:45.407Z,5.92
2019-05-07T07:37:53.012Z,7.63
2019-05-07T07:42:59.798Z,7.90
2019-05-07T07:48:06.500Z,7.60
2019-05-07T07:53:13.115Z,6.68
2019-05-07T07:58:19.673Z,6.77
2019-05-07T08:03:26.011Z,6.71
2019-05-07T08:08:32.472Z,6.37
2019-05-07T08:13:38.973Z,6.58
2019-05-07T08:18:45.420Z,7.13
2019-05-07T08:23:52.896Z,5.45
2019-05-07T08:28:59.644Z,6.37
2019-05-07T08:34:06.317Z,5.98
2019-05-07T08:39:13.176Z,7.90
2019-05-07T08:44:22.104Z,5.42
2019-05-07T08:49:36.912Z,5.62
2019-05-07T08:54:35.399Z,5.48
2019-05-07T08:59:46.765Z,4.97
2019-05-07T09:04:48.273Z,5.14
2019-05-07T09:09:54.797Z,5.42
2019-05-07T09:15:02.361Z,6.19
2019-05-07T09:20:09.334Z,5.67
2019-05-07T09:25:16.079Z,4.49
2019-05-07T09:30:22.685Z,5.86
2019-05-07T09:35:28.818Z,5.44
2019-05-07T09:40:35.076Z,7.02
2019-05-07T09:45:42.048Z,4.54
2019-05-07T09:50:48.803Z,4.28
2019-05-07T09:55:55.106Z,3.58
2019-05-07T10:01:02.160Z,5.17
2019-05-07T10:06:08.563Z,4.13
2019-05-07T10:11:14.875Z,4.51
2019-05-07T10:16:21.327Z,4.89
2019-05-07T10:21:28.057Z,3.29
2019-05-07T10:26:34.449Z,4.95
2019-05-07T10:31:42.387Z,4.39
2019-05-07T10:36:52.197Z,4.88
2019-05-07T10:41:59.328Z,4.34
2019-05-07T10:47:06.046Z,4.04
2019-05-07T10:52:12.654Z,5.06
2019-05-07T10:57:18.939Z,4.69
2019-05-07T11:02:25.333Z,4.55
2019-05-07T11:07:32.781Z,4.18
2019-05-07T11:12:39.309Z,2.94
2019-05-07T11:17:45.872Z,5.80
2019-05-07T11:22:52.446Z,4.18
2019-05-07T11:27:59.768Z,4.24
2019-05-07T11:33:06.144Z,4.34
2019-05-07T11:38:20.573Z,4.29
2019-05-07T11:43:17.889Z,4.74
2019-05-07T11:48:24.396Z,3.77
2019-05-07T11:53:32.663Z,5.34
2019-05-07T11:58:39.171Z,4.60
2019-05-07T12:03:45.398Z,3.87
2019-05-07T12:08:52.214Z,6.60
2019-05-07T12:13:58.572Z,4.14
2019-05-07T12:19:05.132Z,3.10
2019-05-07T12:24:13.548Z,3.56
2019-05-07T12:29:11.949Z,5.33
2019-05-07T12:34:18.603Z,4.64
2019-05-07T12:39:24.937Z,7.77
2019-05-07T12:44:32.008Z,3.21
2019-05-07T12:49:38.513Z,5.36
2019-05-07T12:54:44.835Z,3.66
2019-05-07T12:59:52.960Z,4.99
2019-05-07T13:04:59.488Z,3.53
2019-05-07T13:10:08.364Z,4.82
2019-05-07T13:15:26.806Z,3.69
2019-05-07T13:20:22.687Z,2.88
2019-05-07T13:25:29.248Z,3.42
2019-05-07T13:30:35.638Z,4.11
2019-05-07T13:35:44.329Z,3.36
2019-05-07T13:40:52.713Z,3.13
2019-05-07T13:45:59.758Z,3.96
2019-05-07T13:51:05.952Z,4.02
2019-05-07T13:56:12.922Z,4.15
2019-05-07T14:01:22.848Z,4.81
2019-05-07T14:06:29.716Z,5.11
2019-05-07T14:11:36.169Z,4.39
2019-05-07T14:16:45.005Z,4.86
2019-05-07T14:21:52.805Z,4.38
2019-05-07T14:27:07.957Z,4.41
2019-05-07T14:32:05.189Z,3.58
2019-05-07T14:37:12.906Z,5.27
2019-05-07T14:42:21.989Z,4.93
2019-05-07T14:47:28.967Z,6.70
2019-05-07T14:52:38.393Z,9.61
2019-05-07T14:57:45.105Z,4.82
2019-05-07T15:02:52.567Z,5.54
2019-05-07T15:08:10.547Z,5.72
2019-05-07T15:13:09.432Z,3.85
2019-05-07T15:18:32.337Z,5.21
2019-05-07T15:23:18.624Z,5.45
2019-05-07T15:28:25.129Z,5.45
2019-05-07T15:33:32.376Z,5.57
2019-05-07T15:38:38.907Z,3.79
2019-05-07T15:43:46.201Z,6.17
2019-05-07T15:48:52.721Z,6.76
2019-05-07T15:53:59.088Z,5.18
2019-05-07T15:59:05.803Z,5.76
2019-05-07T16:04:19.984Z,4.81
2019-05-07T16:09:19.134Z,3.44
2019-05-07T16:14:26.758Z,8.34
2019-05-07T16:19:33.784Z,5.42
2019-05-07T16:24:40.691Z,5.28
2019-05-07T16:29:47.143Z,5.63
2019-05-07T16:34:53.773Z,4.70
2019-05-07T16:40:01.616Z,5.90
2019-05-07T16:45:02.895Z,5.35
2019-05-07T16:50:09.987Z,5.43
2019-05-07T16:55:16.279Z,4.78
2019-05-07T17:00:24.570Z,5.89
2019-05-07T17:05:32.100Z,4.85
2019-05-07T17:10:39.116Z,3.40
2019-05-07T17:15:45.555Z,6.05
2019-05-07T17:20:52.426Z,5.00
2019-05-07T17:25:58.984Z,5.08
2019-05-07T17:31:05.472Z,4.49
2019-05-07T17:36:12.775Z,3.54
2019-05-07T17:41:23.873Z,4.83
2019-05-07T17:46:23.313Z,17.58
2019-05-07T17:51:32.270Z,4.30
2019-05-07T17:56:38.997Z,3.57
2019-05-07T18:01:45.360Z,4.41
2019-05-07T18:06:52.292Z,4.04
2019-05-07T18:11:58.882Z,3.78
2019-05-07T18:17:05.207Z,5.83
2019-05-07T18:22:12.798Z,4.47
2019-05-07T18:27:19.418Z,4.68
2019-05-07T18:32:25.721Z,5.89
2019-05-07T18:37:32.724Z,4.38
2019-05-07T18:42:39.455Z,5.17
2019-05-07T18:47:46.108Z,5.32
2019-05-07T18:52:52.613Z,4.89
2019-05-07T18:57:58.958Z,6.72
2019-05-07T19:03:05.635Z,6.85
2019-05-07T19:08:12.590Z,6.14
2019-05-07T19:13:19.395Z,5.25
2019-05-07T19:18:25.651Z,7.55
2019-05-07T19:23:33.040Z,5.96
2019-05-07T19:28:42.141Z,6.88
2019-05-07T19:33:48.378Z,5.57
2019-05-07T19:38:54.872Z,5.13
2019-05-07T19:44:02.042Z,5.83
2019-05-07T19:49:08.655Z,5.47
2019-05-07T19:54:14.917Z,6.66
2019-05-07T19:59:22.264Z,5.60
2019-05-07T20:04:28.987Z,5.39
2019-05-07T20:09:35.395Z,4.21
2019-05-07T20:14:42.309Z,5.42
2019-05-07T20:19:48.913Z,7.14
2019-05-07T20:24:55.643Z,8.16
2019-05-07T20:30:03.136Z,8.84
2019-05-07T20:35:09.508Z,6.45
2019-05-07T20:40:15.840Z,5.82
2019-05-07T20:45:23.860Z,6.42
2019-05-07T20:50:33.087Z,6.47
2019-05-07T20:55:39.704Z,5.43
2019-05-07T21:00:47.174Z,6.37
2019-05-07T21:05:53.878Z,5.70
2019-05-07T21:11:02.360Z,5.71
2019-05-07T21:16:08.964Z,5.85
2019-05-07T21:21:16.760Z,4.69
2019-05-07T21:26:23.139Z,6.11
2019-05-07T21:31:32.036Z,4.23
2019-05-07T21:36:39.100Z,4.44
2019-05-07T21:41:46.497Z,4.27
2019-05-07T21:46:52.921Z,4.25
2019-05-07T21:51:59.176Z,5.75
2019-05-07T21:57:05.621Z,5.29
2019-05-07T22:02:12.784Z,5.69
2019-05-07T22:07:19.341Z,4.72
2019-05-07T22:12:26.083Z,6.85
2019-05-07T22:17:32.347Z,5.30
2019-05-07T22:22:38.817Z,4.64
2019-05-07T22:27:45.081Z,6.96
2019-05-07T22:32:52.816Z,5.50
2019-05-07T22:37:59.266Z,6.05
2019-05-07T22:43:05.544Z,5.67
2019-05-07T22:48:12.270Z,7.89
2019-05-07T22:53:18.854Z,6.67
2019-05-07T22:58:25.121Z,6.17
2019-05-07T23:03:32.353Z,7.48
2019-05-07T23:08:38.852Z,6.35
2019-05-07T23:13:45.298Z,5.32
2019-05-07T23:18:51.544Z,5.21
2019-05-07T23:23:58.054Z,5.52
2019-05-07T23:29:05.171Z,5.78
2019-05-07T23:34:12.526Z,6.28
2019-05-07T23:39:19.151Z,5.90
2019-05-07T23:44:25.378Z,6.56
2019-05-07T23:49:32.335Z,7.62
2019-05-07T23:54:39.616Z,7.35
2019-05-07T23:59:45.896Z,7.86
